Time;durP1;ratioP1;P1;durP2;ratioP2;P2;SDS_P1;SDS_P2;PMS_P1;PMS_P2;Temp;Humidity;BMP_temperature;BMP_pressure;BME280_temperature;BME280_humidity;BME280_pressure;Samples;Min_cycle;Max_cycle;Signal;HPM_P1;HPM_P2
2023/05/02 00:00:53;;;;;;;10.35;8.15;;;;;;;;;;4962927;28;20054;-78
2023/05/02 00:03:20;;;;;;;10.43;8.40;;;;;;;;;;4946068;28;20051;-77
2023/05/02 00:05:47;;;;;;;10.30;8.57;;;;;;;;;;4975134;28;20058;-77
2023/05/02 00:08:15;;;;;;;10.25;9.13;;;;;;;;;;4958916;28;20065;-77
2023/05/02 00:10:41;;;;;;;10.55;8.30;;;;;;;;;;4975943;28;20054;-77
2023/05/02 00:13:09;;;;;;;9.38;8.40;;;;;;;;;;4982118;28;20133;-79
2023/05/02 00:15:35;;;;;;;12.35;8.32;;;;;;;;;;4968208;28;20069;-78
2023/05/02 00:18:02;;;;;;;10.43;9.18;;;;;;;;;;4983592;28;20062;-78
2023/05/02 00:20:29;;;;;;;10.45;8.35;;;;;;;;;;4952228;28;20057;-77
2023/05/02 00:22:56;;;;;;;11.05;8.90;;;;;;;;;;4955300;28;20406;-78
2023/05/02 00:25:22;;;;;;;11.00;9.18;;;;;;;;;;4959321;28;20058;-76
2023/05/02 00:27:50;;;;;;;12.25;8.82;;;;;;;;;;4974540;28;20136;-77
2023/05/02 00:30:17;;;;;;;10.43;8.73;;;;;;;;;;4974618;28;20116;-76
2023/05/02 00:32:44;;;;;;;11.82;8.43;;;;;;;;;;4974611;28;20400;-76
2023/05/02 00:35:11;;;;;;;9.98;8.98;;;;;;;;;;4974552;28;20226;-77
2023/05/02 00:37:38;;;;;;;11.50;9.52;;;;;;;;;;4974347;28;20057;-76
2023/05/02 00:40:06;;;;;;;10.95;9.73;;;;;;;;;;4957869;28;20052;-77
2023/05/02 00:42:35;;;;;;;10.52;9.43;;;;;;;;;;4958827;28;20650;-77
2023/05/02 00:45:05;;;;;;;10.57;9.40;;;;;;;;;;4975124;28;20086;-77
2023/05/02 00:47:32;;;;;;;9.90;8.88;;;;;;;;;;4959687;28;20064;-77
2023/05/02 00:50:00;;;;;;;10.85;9.20;;;;;;;;;;4958449;28;20089;-77
2023/05/02 00:52:27;;;;;;;12.45;9.63;;;;;;;;;;4974984;28;20054;-76
2023/05/02 00:54:54;;;;;;;11.43;9.25;;;;;;;;;;4974632;28;20058;-76
2023/05/02 00:57:21;;;;;;;9.82;8.82;;;;;;;;;;4960023;28;20060;-77
2023/05/02 00:59:48;;;;;;;11.18;9.52;;;;;;;;;;4960615;28;20120;-78
2023/05/02 01:02:21;;;;;;;10.10;8.35;;;;;;;;;;4946246;28;20050;-79
2023/05/02 01:05:10;;;;;;;10.43;9.32;;;;;;;;;;4960670;28;20434;-79
2023/05/02 01:07:40;;;;;;;11.18;8.50;;;;;;;;;;4975592;28;20057;-77
2023/05/02 01:10:27;;;;;;;10.10;8.98;;;;;;;;;;4973982;28;20073;-76
2023/05/02 01:12:56;;;;;;;12.73;9.98;;;;;;;;;;4958198;28;20062;-77
2023/05/02 01:15:23;;;;;;;11.68;9.13;;;;;;;;;;4973897;28;20062;-76
2023/05/02 01:17:51;;;;;;;11.98;9.00;;;;;;;;;;4941665;28;20046;-77
2023/05/02 01:20:20;;;;;;;10.70;9.60;;;;;;;;;;4957855;28;20089;-77
2023/05/02 01:22:47;;;;;;;9.93;8.90;;;;;;;;;;4943773;28;20082;-77
2023/05/02 01:25:35;;;;;;;11.57;9.40;;;;;;;;;;4959787;28;20062;-79
2023/05/02 01:28:08;;;;;;;10.35;8.65;;;;;;;;;;4960872;28;20054;-80
2023/05/02 01:30:36;;;;;;;14.88;9.20;;;;;;;;;;4977271;28;20113;-80
2023/05/02 01:33:03;;;;;;;14.10;9.57;;;;;;;;;;4962221;28;20122;-80
2023/05/02 01:35:32;;;;;;;10.40;9.05;;;;;;;;;;4963747;28;20058;-81
2023/05/02 01:37:58;;;;;;;11.20;9.80;;;;;;;;;;4967438;28;20664;-81
2023/05/02 01:40:25;;;;;;;12.07;8.98;;;;;;;;;;4950533;28;20165;-81
2023/05/02 01:42:52;;;;;;;10.75;9.65;;;;;;;;;;4984661;28;20058;-81
2023/05/02 01:45:20;;;;;;;11.80;9.68;;;;;;;;;;4984712;28;20066;-81
2023/05/02 01:47:47;;;;;;;10.07;8.60;;;;;;;;;;4965452;28;20054;-81
2023/05/02 01:50:19;;;;;;;11.63;9.60;;;;;;;;;;4950238;28;20074;-81
2023/05/02 01:52:46;;;;;;;9.93;8.65;;;;;;;;;;4963154;28;20054;-80
2023/05/02 01:55:14;;;;;;;9.82;8.32;;;;;;;;;;4962000;28;20062;-80
2023/05/02 01:57:42;;;;;;;11.18;9.07;;;;;;;;;;4948288;28;20092;-79
2023/05/02 02:00:10;;;;;;;9.98;8.77;;;;;;;;;;4964412;28;20061;-78
2023/05/02 02:02:36;;;;;;;13.93;9.23;;;;;;;;;;4945017;28;20065;-79
2023/05/02 02:05:04;;;;;;;12.13;9.70;;;;;;;;;;4940620;28;20059;-79
2023/05/02 02:07:31;;;;;;;9.95;8.65;;;;;;;;;;4940648;28;20078;-79
2023/05/02 02:09:57;;;;;;;10.63;9.52;;;;;;;;;;4956725;28;20133;-79
2023/05/02 02:12:31;;;;;;;9.55;8.55;;;;;;;;;;4960580;28;20053;-79
2023/05/02 02:14:59;;;;;;;;;;;;;;;;;;4961559;28;20058;-79
2023/05/02 02:17:35;;;;;;;10.63;9.27;;;;;;;;;;4978282;28;19921;-79
2023/05/02 02:20:04;;;;;;;11.00;9.55;;;;;;;;;;4964404;28;20059;-81
2023/05/02 02:22:31;;;;;;;10.73;9.63;;;;;;;;;;4964454;28;20503;-81
2023/05/02 02:24:57;;;;;;;14.23;9.93;;;;;;;;;;4964979;28;20489;-81
2023/05/02 02:27:24;;;;;;;10.13;9.00;;;;;;;;;;4982489;28;20065;-81
2023/05/02 02:29:51;;;;;;;11.55;10.02;;;;;;;;;;4981098;28;20057;-81
2023/05/02 02:32:18;;;;;;;14.80;10.25;;;;;;;;;;4966317;28;20060;-81
2023/05/02 02:34:44;;;;;;;9.85;8.85;;;;;;;;;;4966517;28;20054;-81
2023/05/02 02:37:17;;;;;;;10.30;9.27;;;;;;;;;;4981709;28;20081;-78
2023/05/02 02:40:12;;;;;;;11.52;9.50;;;;;;;;;;4947348;28;20062;-78
2023/05/02 02:42:49;;;;;;;11.57;9.05;;;;;;;;;;4979343;28;20050;-78
2023/05/02 02:45:37;;;;;;;11.93;8.50;;;;;;;;;;4964568;28;20076;-78
2023/05/02 02:48:39;;;;;;;8.95;8.02;;;;;;;;;;4970619;28;20085;-78
2023/05/02 02:51:14;;;;;;;10.88;9.50;;;;;;;;;;4981390;28;20061;-78
2023/05/02 02:54:06;;;;;;;13.00;9.15;;;;;;;;;;4966195;28;20524;-77
2023/05/02 02:56:54;;;;;;;10.80;8.82;;;;;;;;;;4947658;28;20418;-77
2023/05/02 02:59:41;;;;;;;10.07;9.02;;;;;;;;;;4945026;28;20067;-80
2023/05/02 03:02:08;;;;;;;9.25;8.13;;;;;;;;;;4963769;28;20054;-80
2023/05/02 03:04:41;;;;;;;8.93;8.02;;;;;;;;;;4964574;28;20470;-80
2023/05/02 03:07:07;;;;;;;9.57;7.93;;;;;;;;;;4947107;28;20714;-80
2023/05/02 03:09:41;;;;;;;10.77;8.80;;;;;;;;;;4967835;28;20054;-79
2023/05/02 03:12:08;;;;;;;10.27;8.00;;;;;;;;;;4969237;28;20068;-79
2023/05/02 03:14:35;;;;;;;9.48;8.50;;;;;;;;;;4970458;28;20050;-80
2023/05/02 03:17:03;;;;;;;11.43;7.93;;;;;;;;;;4969983;28;20054;-79
2023/05/02 03:19:30;;;;;;;10.43;8.85;;;;;;;;;;4969476;28;20060;-79
2023/05/02 03:21:57;;;;;;;13.02;8.63;;;;;;;;;;4970737;28;20051;-80
2023/05/02 03:24:23;;;;;;;10.85;9.18;;;;;;;;;;4970234;28;20100;-79
2023/05/02 03:26:53;;;;;;;8.40;7.30;;;;;;;;;;4969853;28;20054;-80
2023/05/02 03:29:20;;;;;;;9.77;7.70;;;;;;;;;;4968859;28;20050;-80
2023/05/02 03:31:47;;;;;;;8.88;7.97;;;;;;;;;;4992003;28;20026;-79
2023/05/02 03:34:13;;;;;;;9.50;7.15;;;;;;;;;;4985705;28;20054;-80
2023/05/02 03:36:40;;;;;;;8.30;7.38;;;;;;;;;;4951750;28;20054;-80
2023/05/02 03:39:07;;;;;;;9.85;7.80;;;;;;;;;;4952783;28;20498;-79
2023/05/02 03:41:34;;;;;;;8.50;7.70;;;;;;;;;;4984480;28;20062;-78
2023/05/02 03:44:01;;;;;;;10.15;7.35;;;;;;;;;;4968011;28;20058;-77
2023/05/02 03:46:27;;;;;;;8.50;7.03;;;;;;;;;;4979385;28;20065;-77
2023/05/02 03:48:56;;;;;;;9.40;7.70;;;;;;;;;;4980137;28;20062;-77
2023/05/02 03:51:23;;;;;;;9.27;7.22;;;;;;;;;;4962602;28;20094;-77
2023/05/02 03:53:50;;;;;;;10.75;7.95;;;;;;;;;;4980760;28;20064;-79
2023/05/02 03:56:20;;;;;;;9.45;7.78;;;;;;;;;;4969056;28;20059;-78
2023/05/02 03:58:47;;;;;;;11.45;8.10;;;;;;;;;;4955574;28;20050;-79
2023/05/02 04:01:15;;;;;;;9.15;7.70;;;;;;;;;;4950266;28;20133;-78
2023/05/02 04:03:42;;;;;;;10.77;9.10;;;;;;;;;;4947088;28;20054;-78
2023/05/02 04:06:09;;;;;;;9.80;8.77;;;;;;;;;;4972246;28;20054;-79
2023/05/02 04:08:37;;;;;;;10.68;9.15;;;;;;;;;;4986090;28;20050;-79
2023/05/02 04:11:04;;;;;;;11.65;8.68;;;;;;;;;;4965407;28;20057;-79
2023/05/02 04:13:30;;;;;;;11.40;9.23;;;;;;;;;;4969491;28;20064;-79
2023/05/02 04:15:57;;;;;;;11.07;9.60;;;;;;;;;;4977107;28;20065;-79
2023/05/02 04:18:24;;;;;;;14.55;9.27;;;;;;;;;;4951723;28;20065;-79
2023/05/02 04:20:51;;;;;;;10.65;9.02;;;;;;;;;;4984608;28;20054;-78
2023/05/02 04:23:18;;;;;;;10.60;9.07;;;;;;;;;;4985973;28;20469;-77
2023/05/02 04:25:52;;;;;;;10.63;9.30;;;;;;;;;;5004186;28;20062;-78
2023/05/02 04:28:20;;;;;;;8.57;7.68;;;;;;;;;;4974991;28;20061;-77
2023/05/02 04:30:48;;;;;;;10.77;9.68;;;;;;;;;;4989830;28;20082;-78
2023/05/02 04:33:15;;;;;;;12.98;9.45;;;;;;;;;;4991239;28;20061;-78
2023/05/02 04:35:43;;;;;;;10.27;8.02;;;;;;;;;;4972071;28;20057;-77
2023/05/02 04:38:09;;;;;;;10.60;8.73;;;;;;;;;;4971248;28;20113;-77
2023/05/02 04:40:36;;;;;;;10.27;8.85;;;;;;;;;;4980042;28;20080;-77
2023/05/02 04:43:03;;;;;;;10.90;9.25;;;;;;;;;;4957136;28;20070;-78
2023/05/02 04:45:31;;;;;;;10.55;8.63;;;;;;;;;;4945573;28;20050;-79
2023/05/02 04:47:58;;;;;;;11.35;9.25;;;;;;;;;;4976213;28;20523;-77
2023/05/02 04:50:27;;;;;;;10.20;8.95;;;;;;;;;;4964961;28;20062;-80
2023/05/02 04:52:53;;;;;;;11.98;9.02;;;;;;;;;;4981647;28;20708;-81
2023/05/02 04:55:20;;;;;;;17.02;10.27;;;;;;;;;;4969806;28;20057;-79
2023/05/02 04:57:47;;;;;;;10.00;8.43;;;;;;;;;;4987487;28;20057;-81
2023/05/02 05:00:14;;;;;;;12.73;8.50;;;;;;;;;;4954006;28;20122;-80
2023/05/02 05:02:42;;;;;;;10.90;8.57;;;;;;;;;;4984024;28;20129;-80
2023/05/02 05:05:09;;;;;;;12.85;9.32;;;;;;;;;;4986155;28;20058;-78
2023/05/02 05:07:36;;;;;;;9.48;8.48;;;;;;;;;;4968912;28;20058;-78
2023/05/02 05:10:03;;;;;;;8.90;8.00;;;;;;;;;;4959728;28;20089;-76
2023/05/02 05:12:30;;;;;;;9.60;7.95;;;;;;;;;;4975763;28;20047;-82
2023/05/02 05:14:56;;;;;;;9.27;8.20;;;;;;;;;;4944493;28;20062;-76
2023/05/02 05:17:23;;;;;;;9.13;8.15;;;;;;;;;;4977517;28;20054;-81
2023/05/02 05:19:50;;;;;;;10.68;8.32;;;;;;;;;;4989630;28;20566;-83
2023/05/02 05:22:17;;;;;;;10.10;7.63;;;;;;;;;;4970576;28;20422;-79
2023/05/02 05:24:51;;;;;;;8.75;7.78;;;;;;;;;;4978579;28;20064;-81
2023/05/02 05:27:19;;;;;;;9.05;7.75;;;;;;;;;;4964933;28;20058;-79
2023/05/02 05:29:46;;;;;;;10.32;7.75;;;;;;;;;;4957722;28;20445;-74
2023/05/02 05:32:13;;;;;;;10.02;8.35;;;;;;;;;;4988676;28;20527;-76
2023/05/02 05:34:40;;;;;;;10.50;7.22;;;;;;;;;;4940816;28;20055;-76
2023/05/02 05:37:07;;;;;;;9.05;7.00;;;;;;;;;;4940995;28;20602;-75
2023/05/02 05:39:33;;;;;;;11.10;7.90;;;;;;;;;;4972537;28;20499;-77
2023/05/02 05:42:01;;;;;;;10.93;7.68;;;;;;;;;;4989377;28;20054;-76
2023/05/02 05:44:28;;;;;;;7.82;7.07;;;;;;;;;;4972751;28;20157;-78
2023/05/02 05:46:55;;;;;;;8.35;7.50;;;;;;;;;;4958352;28;20065;-77
2023/05/02 05:49:23;;;;;;;11.27;7.68;;;;;;;;;;4957772;28;20085;-77
2023/05/02 05:51:49;;;;;;;10.02;7.50;;;;;;;;;;4973023;28;20075;-78
2023/05/02 05:54:17;;;;;;;8.93;7.25;;;;;;;;;;4976078;28;20137;-77
2023/05/02 05:56:44;;;;;;;9.20;7.45;;;;;;;;;;4945182;28;20557;-77
2023/05/02 05:59:11;;;;;;;9.30;7.28;;;;;;;;;;4977053;28;20054;-78
2023/05/02 06:01:38;;;;;;;9.75;7.07;;;;;;;;;;4945319;28;20054;-77
2023/05/02 06:04:06;;;;;;;8.65;7.32;;;;;;;;;;4961811;28;20068;-78
2023/05/02 06:06:33;;;;;;;8.13;7.30;;;;;;;;;;4962527;28;20062;-78
2023/05/02 06:09:00;;;;;;;8.73;7.57;;;;;;;;;;4976875;28;20058;-77
2023/05/02 06:11:26;;;;;;;8.82;7.93;;;;;;;;;;4976853;28;20053;-76
2023/05/02 06:13:53;;;;;;;9.63;7.90;;;;;;;;;;4972906;28;20872;-77
2023/05/02 06:16:20;;;;;;;8.45;7.60;;;;;;;;;;4976780;28;20054;-76
2023/05/02 06:18:50;;;;;;;7.75;6.88;;;;;;;;;;4992698;28;20525;-77
2023/05/02 06:21:16;;;;;;;8.38;7.53;;;;;;;;;;4961002;28;20054;-79
2023/05/02 06:23:44;;;;;;;8.25;7.13;;;;;;;;;;4960780;28;20532;-78
2023/05/02 06:26:11;;;;;;;9.27;7.93;;;;;;;;;;4960913;28;20060;-78
2023/05/02 06:28:38;;;;;;;9.48;7.45;;;;;;;;;;4945262;28;20066;-78
2023/05/02 06:31:04;;;;;;;8.93;7.40;;;;;;;;;;4960667;28;20081;-78
2023/05/02 06:33:32;;;;;;;9.57;7.72;;;;;;;;;;4960278;28;20085;-77
2023/05/02 06:35:59;;;;;;;9.07;8.20;;;;;;;;;;4945911;28;20058;-79
2023/05/02 06:38:28;;;;;;;8.93;8.00;;;;;;;;;;4959342;28;20051;-81
2023/05/02 06:40:54;;;;;;;9.60;8.68;;;;;;;;;;4942678;28;20145;-81
2023/05/02 06:43:21;;;;;;;8.80;7.90;;;;;;;;;;4950746;28;20051;-80
2023/05/02 06:45:51;;;;;;;10.55;8.70;;;;;;;;;;4970698;28;20061;-80
2023/05/02 06:48:18;;;;;;;10.88;8.60;;;;;;;;;;4955128;28;20407;-82
2023/05/02 06:50:46;;;;;;;9.65;8.50;;;;;;;;;;4982936;28;20106;-79
2023/05/02 06:53:14;;;;;;;9.63;7.97;;;;;;;;;;4937398;28;20055;-79
2023/05/02 06:55:41;;;;;;;8.73;7.93;;;;;;;;;;4934382;28;20050;-82
2023/05/02 06:58:07;;;;;;;9.68;8.75;;;;;;;;;;4936785;28;20759;-80
2023/05/02 07:00:34;;;;;;;9.30;8.38;;;;;;;;;;4967673;28;20050;-78
2023/05/02 07:03:01;;;;;;;9.93;8.93;;;;;;;;;;4952580;28;20051;-77
2023/05/02 07:05:28;;;;;;;9.98;8.88;;;;;;;;;;4966856;28;20088;-75
2023/05/02 07:07:55;;;;;;;10.85;9.60;;;;;;;;;;4980985;28;20494;-79
2023/05/02 07:10:22;;;;;;;10.27;9.07;;;;;;;;;;4943789;28;20058;-77
2023/05/02 07:12:49;;;;;;;11.27;9.77;;;;;;;;;;4983365;28;20073;-83
2023/05/02 07:15:16;;;;;;;12.48;10.68;;;;;;;;;;4939425;28;20173;-79
2023/05/02 07:17:43;;;;;;;14.05;9.02;;;;;;;;;;4982074;28;20081;-82
2023/05/02 07:20:10;;;;;;;12.38;9.98;;;;;;;;;;4955027;28;20439;-79
2023/05/02 07:22:38;;;;;;;11.13;9.20;;;;;;;;;;4957912;28;20054;-75
2023/05/02 07:25:07;;;;;;;11.77;10.55;;;;;;;;;;4963776;28;20133;-75
2023/05/02 07:27:34;;;;;;;11.98;10.45;;;;;;;;;;4965210;28;20046;-75
2023/05/02 07:30:00;;;;;;;13.90;11.00;;;;;;;;;;4976125;28;20046;-76
2023/05/02 07:32:28;;;;;;;11.85;10.63;;;;;;;;;;4963271;28;20133;-75
2023/05/02 07:34:55;;;;;;;14.07;11.13;;;;;;;;;;4976076;28;20059;-76
2023/05/02 07:37:22;;;;;;;11.07;9.90;;;;;;;;;;4977966;28;20055;-76
2023/05/02 07:39:49;;;;;;;13.30;10.80;;;;;;;;;;4968321;28;20591;-76
2023/05/02 07:42:16;;;;;;;12.57;11.18;;;;;;;;;;4958539;28;20057;-75
2023/05/02 07:44:42;;;;;;;15.15;10.05;;;;;;;;;;4974563;28;20054;-76
2023/05/02 07:47:09;;;;;;;13.98;11.88;;;;;;;;;;4975532;28;20054;-76
2023/05/02 07:49:36;;;;;;;17.50;13.15;;;;;;;;;;4975704;28;20068;-75
2023/05/02 07:52:03;;;;;;;13.45;11.70;;;;;;;;;;4959725;28;20503;-75
2023/05/02 07:54:30;;;;;;;13.13;11.73;;;;;;;;;;4975912;28;20061;-75
2023/05/02 07:57:00;;;;;;;17.02;12.57;;;;;;;;;;4959869;28;20058;-75
2023/05/02 07:59:29;;;;;;;13.77;11.50;;;;;;;;;;4975839;28;20093;-76
2023/05/02 08:01:56;;;;;;;14.70;12.07;;;;;;;;;;4975198;28;20556;-76
2023/05/02 08:04:22;;;;;;;15.32;12.32;;;;;;;;;;4975566;28;20064;-74
2023/05/02 08:06:50;;;;;;;13.95;12.43;;;;;;;;;;4975627;28;20507;-76
2023/05/02 08:09:17;;;;;;;13.48;12.05;;;;;;;;;;4959713;28;20056;-76
2023/05/02 08:11:43;;;;;;;15.30;12.40;;;;;;;;;;4975230;28;20050;-75
2023/05/02 08:14:10;;;;;;;15.10;13.40;;;;;;;;;;4975427;28;20050;-76
2023/05/02 08:16:37;;;;;;;14.77;12.02;;;;;;;;;;4974999;28;20418;-76
2023/05/02 08:19:04;;;;;;;17.92;13.95;;;;;;;;;;4959786;28;20085;-76
2023/05/02 08:21:31;;;;;;;15.15;13.50;;;;;;;;;;4975239;28;20061;-75
2023/05/02 08:23:58;;;;;;;14.20;12.75;;;;;;;;;;4943229;28;20421;-76
2023/05/02 08:26:25;;;;;;;14.15;12.65;;;;;;;;;;4943585;28;20058;-76
2023/05/02 08:28:53;;;;;;;15.98;14.27;;;;;;;;;;4959090;28;20058;-76
2023/05/02 08:31:20;;;;;;;13.25;11.85;;;;;;;;;;4943298;28;20480;-76
2023/05/02 08:33:47;;;;;;;14.57;12.70;;;;;;;;;;4975251;28;20104;-76
2023/05/02 08:36:15;;;;;;;16.08;13.60;;;;;;;;;;4959244;28;20417;-76
2023/05/02 08:38:43;;;;;;;14.05;12.65;;;;;;;;;;4959362;28;20053;-75
2023/05/02 08:41:10;;;;;;;16.65;14.93;;;;;;;;;;4958914;28;20055;-76
2023/05/02 08:43:40;;;;;;;16.52;14.20;;;;;;;;;;4942855;28;20066;-76
2023/05/02 08:46:11;;;;;;;17.65;14.00;;;;;;;;;;4975209;28;20054;-75
2023/05/02 08:48:43;;;;;;;16.05;14.32;;;;;;;;;;4975023;28;20137;-76
2023/05/02 08:51:14;;;;;;;17.08;14.63;;;;;;;;;;4958846;28;20056;-75
2023/05/02 08:53:41;;;;;;;17.00;14.30;;;;;;;;;;4942964;28;20046;-76
2023/05/02 08:56:09;;;;;;;17.00;14.80;;;;;;;;;;4958865;28;20446;-76
2023/05/02 08:58:40;;;;;;;16.60;14.40;;;;;;;;;;4959185;28;20058;-74
2023/05/02 09:01:14;;;;;;;16.83;14.25;;;;;;;;;;4974813;28;20157;-76
2023/05/02 09:03:42;;;;;;;17.75;13.82;;;;;;;;;;4943210;28;20050;-76
2023/05/02 09:06:11;;;;;;;17.15;14.05;;;;;;;;;;4958976;28;20392;-76
2023/05/02 09:08:41;;;;;;;18.42;14.32;;;;;;;;;;4958799;28;20399;-75
2023/05/02 09:11:09;;;;;;;15.40;12.60;;;;;;;;;;4958720;28;20502;-76
2023/05/02 09:13:37;;;;;;;14.85;13.02;;;;;;;;;;4942697;28;20058;-76
2023/05/02 09:16:06;;;;;;;17.40;13.88;;;;;;;;;;4958826;28;20065;-76
2023/05/02 09:18:44;;;;;;;15.38;13.75;;;;;;;;;;4943007;28;20057;-75
2023/05/02 09:21:15;;;;;;;17.95;14.63;;;;;;;;;;4942919;28;20090;-75
2023/05/02 09:23:46;;;;;;;16.10;14.45;;;;;;;;;;4959281;28;20065;-75
2023/05/02 09:26:23;;;;;;;14.75;13.07;;;;;;;;;;4958703;28;20057;-76
2023/05/02 09:28:51;;;;;;;16.35;14.13;;;;;;;;;;4978166;28;20499;-76
2023/05/02 09:31:25;;;;;;;13.73;12.32;;;;;;;;;;4946553;28;20169;-76
2023/05/02 09:34:14;;;;;;;16.27;13.13;;;;;;;;;;4981610;28;20051;-76
2023/05/02 09:36:42;;;;;;;16.83;15.10;;;;;;;;;;4947752;28;20077;-75
2023/05/02 09:39:12;;;;;;;19.27;15.18;;;;;;;;;;4963893;28;20561;-75
2023/05/02 09:41:43;;;;;;;16.25;14.20;;;;;;;;;;4948817;28;20502;-75
2023/05/02 09:44:11;;;;;;;16.55;14.60;;;;;;;;;;4979850;28;20101;-76
2023/05/02 09:46:44;;;;;;;16.17;13.02;;;;;;;;;;4964598;28;20133;-75
2023/05/02 09:49:11;;;;;;;18.27;15.50;;;;;;;;;;4980279;28;20515;-75
2023/05/02 09:51:37;;;;;;;16.05;13.20;;;;;;;;;;4979752;28;20061;-75
2023/05/02 09:54:04;;;;;;;16.52;14.80;;;;;;;;;;4981518;28;20129;-75
2023/05/02 09:56:31;;;;;;;13.13;11.77;;;;;;;;;;4949610;28;20054;-74
2023/05/02 09:59:14;;;;;;;14.57;12.88;;;;;;;;;;4969111;28;20054;-75
2023/05/02 10:01:41;;;;;;;16.35;12.40;;;;;;;;;;4959605;28;20058;-75
2023/05/02 10:04:15;;;;;;;15.07;12.35;;;;;;;;;;4983343;28;20132;-75
2023/05/02 10:06:43;;;;;;;14.75;13.13;;;;;;;;;;4966227;28;20054;-77
2023/05/02 10:09:11;;;;;;;17.38;14.52;;;;;;;;;;4962957;28;20062;-78
2023/05/02 10:11:44;;;;;;;16.73;14.80;;;;;;;;;;4964102;28;20411;-77
2023/05/02 10:14:11;;;;;;;16.70;13.05;;;;;;;;;;4962288;28;20081;-76
2023/05/02 10:16:40;;;;;;;16.52;14.80;;;;;;;;;;4945116;28;20485;-76
2023/05/02 10:19:09;;;;;;;17.83;14.90;;;;;;;;;;4961173;28;20527;-77
2023/05/02 10:21:36;;;;;;;19.92;17.58;;;;;;;;;;4945944;28;20058;-78
2023/05/02 10:24:03;;;;;;;18.20;14.50;;;;;;;;;;4961805;28;20043;-77
2023/05/02 10:26:30;;;;;;;19.58;14.88;;;;;;;;;;4943700;28;20056;-77
2023/05/02 10:28:58;;;;;;;23.08;16.70;;;;;;;;;;4964887;28;20064;-78
2023/05/02 10:31:25;;;;;;;17.65;15.85;;;;;;;;;;4980596;28;20050;-78
2023/05/02 10:33:53;;;;;;;14.80;13.20;;;;;;;;;;4948724;28;20051;-78
2023/05/02 10:36:22;;;;;;;16.98;14.95;;;;;;;;;;4944274;28;20431;-77
2023/05/02 10:38:49;;;;;;;18.45;14.88;;;;;;;;;;4972119;28;20054;-78
2023/05/02 10:41:22;;;;;;;22.00;14.85;;;;;;;;;;4962511;28;20074;-79
2023/05/02 10:43:49;;;;;;;19.52;14.95;;;;;;;;;;4960955;28;20050;-77
2023/05/02 10:46:29;;;;;;;14.27;12.30;;;;;;;;;;4984832;28;20054;-78
2023/05/02 10:49:03;;;;;;;16.92;14.35;;;;;;;;;;4970858;28;20114;-77
2023/05/02 10:51:40;;;;;;;15.40;13.43;;;;;;;;;;4948357;28;20171;-76
2023/05/02 10:54:16;;;;;;;13.50;11.88;;;;;;;;;;4957002;28;20426;-77
2023/05/02 10:57:05;;;;;;;14.85;13.32;;;;;;;;;;4973054;28;20051;-74
2023/05/02 10:59:36;;;;;;;14.40;12.90;;;;;;;;;;4980023;28;20093;-76
2023/05/02 11:02:26;;;;;;;14.93;13.27;;;;;;;;;;4942688;28;20055;-76
2023/05/02 11:05:06;;;;;;;14.80;13.20;;;;;;;;;;4962170;28;20050;-76
2023/05/02 11:07:34;;;;;;;16.92;13.93;;;;;;;;;;4946429;28;20051;-76
2023/05/02 11:10:16;;;;;;;15.40;13.80;;;;;;;;;;4948419;28;20462;-77
2023/05/02 11:12:48;;;;;;;14.17;12.23;;;;;;;;;;4959772;28;20043;-76
2023/05/02 11:15:41;;;;;;;13.07;11.48;;;;;;;;;;4968774;28;20114;-76
2023/05/02 11:18:10;;;;;;;16.13;14.02;;;;;;;;;;4957399;28;20115;-76
2023/05/02 11:20:42;;;;;;;17.60;14.98;;;;;;;;;;4963152;28;20081;-76
2023/05/02 11:23:15;;;;;;;14.82;12.52;;;;;;;;;;4947739;28;20477;-76
2023/05/02 11:25:46;;;;;;;16.55;12.75;;;;;;;;;;4963916;28;20109;-77
2023/05/02 11:28:49;;;;;;;13.65;11.65;;;;;;;;;;4966161;28;20054;-76
2023/05/02 11:31:28;;;;;;;15.43;12.25;;;;;;;;;;4968637;28;20718;-89
2023/05/02 11:34:02;;;;;;;16.60;12.68;;;;;;;;;;4981430;28;20061;-80
2023/05/02 11:36:32;;;;;;;13.48;12.13;;;;;;;;;;4979414;28;20051;-77
2023/05/02 11:39:00;;;;;;;13.93;11.88;;;;;;;;;;4943631;28;20387;-78
2023/05/02 11:41:40;;;;;;;13.15;11.73;;;;;;;;;;4972798;28;20141;-81
2023/05/02 11:44:07;;;;;;;12.00;10.65;;;;;;;;;;4966990;28;20074;-81
2023/05/02 11:46:40;;;;;;;11.80;10.60;;;;;;;;;;4960005;28;20055;-83
2023/05/02 11:49:07;;;;;;;13.63;12.23;;;;;;;;;;4946846;28;20499;-86
2023/05/02 11:51:36;;;;;;;13.40;12.00;;;;;;;;;;4959581;28;20049;-82
2023/05/02 11:54:06;;;;;;;16.75;13.23;;;;;;;;;;4970432;28;20052;-80
2023/05/02 11:56:33;;;;;;;14.23;12.43;;;;;;;;;;4961731;28;20074;-80
2023/05/02 11:59:03;;;;;;;13.95;11.35;;;;;;;;;;4934653;28;20085;-78
2023/05/02 12:01:30;;;;;;;14.65;13.13;;;;;;;;;;4932334;28;20133;-78
2023/05/02 12:04:05;;;;;;;15.45;12.55;;;;;;;;;;4950229;28;20730;-78
2023/05/02 12:06:33;;;;;;;16.83;14.60;;;;;;;;;;4971393;28;20055;-79
2023/05/02 12:09:12;;;;;;;19.63;15.35;;;;;;;;;;4982401;28;20061;-78
2023/05/02 12:11:39;;;;;;;16.15;13.82;;;;;;;;;;4950639;28;20494;-78
2023/05/02 12:14:06;;;;;;;17.95;15.48;;;;;;;;;;4961836;28;20062;-78
2023/05/02 12:16:33;;;;;;;17.05;15.23;;;;;;;;;;4951047;28;20062;-78
2023/05/02 12:19:03;;;;;;;19.65;16.33;;;;;;;;;;4964116;28;20054;-78
2023/05/02 12:21:32;;;;;;;18.40;15.32;;;;;;;;;;4950314;28;20125;-78
2023/05/02 12:24:00;;;;;;;17.27;14.27;;;;;;;;;;4948903;28;20522;-78
2023/05/02 12:26:29;;;;;;;16.50;14.32;;;;;;;;;;4930863;28;20114;-79
2023/05/02 12:29:00;;;;;;;14.65;13.07;;;;;;;;;;4943451;28;20141;-78
2023/05/02 12:31:29;;;;;;;16.17;13.32;;;;;;;;;;4954240;28;20090;-77
2023/05/02 12:33:58;;;;;;;16.65;14.80;;;;;;;;;;4950223;28;20089;-78
2023/05/02 12:36:29;;;;;;;17.38;15.05;;;;;;;;;;4964579;28;20055;-77
2023/05/02 12:38:58;;;;;;;16.60;13.57;;;;;;;;;;4944931;28;20486;-78
2023/05/02 12:41:41;;;;;;;17.73;15.82;;;;;;;;;;4964551;28;20059;-79
2023/05/02 12:44:08;;;;;;;17.73;15.73;;;;;;;;;;4963034;28;20186;-78
2023/05/02 12:46:35;;;;;;;21.70;16.60;;;;;;;;;;4970054;28;20054;-79
2023/05/02 12:49:10;;;;;;;22.67;17.52;;;;;;;;;;4962613;28;20061;-78
2023/05/02 12:51:38;;;;;;;22.55;18.75;;;;;;;;;;4936582;28;20061;-77
2023/05/02 12:54:06;;;;;;;26.70;19.60;;;;;;;;;;4932042;28;20601;-78
2023/05/02 12:56:39;;;;;;;23.65;19.15;;;;;;;;;;4947686;28;20058;-76
2023/05/02 12:59:06;;;;;;;23.02;19.13;;;;;;;;;;4962804;28;20050;-77
2023/05/02 13:01:33;;;;;;;22.27;17.20;;;;;;;;;;4944328;28;20427;-76
2023/05/02 13:04:01;;;;;;;21.95;17.40;;;;;;;;;;4946178;28;20162;-77
2023/05/02 13:06:27;;;;;;;23.60;18.15;;;;;;;;;;4983647;28;20058;-76
2023/05/02 13:08:54;;;;;;;23.10;16.75;;;;;;;;;;4949073;28;20054;-76
2023/05/02 13:11:22;;;;;;;18.20;14.90;;;;;;;;;;4978951;28;20054;-76
2023/05/02 13:13:48;;;;;;;20.35;15.43;;;;;;;;;;4979447;28;20060;-76
2023/05/02 13:16:15;;;;;;;19.30;14.93;;;;;;;;;;4979471;28;20054;-75
2023/05/02 13:18:42;;;;;;;16.65;13.73;;;;;;;;;;4945488;28;20145;-76
2023/05/02 13:21:12;;;;;;;17.27;14.60;;;;;;;;;;4977276;28;20579;-76
2023/05/02 13:23:39;;;;;;;17.10;13.82;;;;;;;;;;4960726;28;20130;-76
2023/05/02 13:26:06;;;;;;;16.27;12.82;;;;;;;;;;4961109;28;20058;-76
2023/05/02 13:28:34;;;;;;;21.38;15.68;;;;;;;;;;4944607;28;20063;-75
2023/05/02 13:31:01;;;;;;;18.23;13.73;;;;;;;;;;4955954;28;20054;-77
2023/05/02 13:33:28;;;;;;;16.55;14.02;;;;;;;;;;4943839;28;20051;-76
2023/05/02 13:35:54;;;;;;;16.85;13.55;;;;;;;;;;4986460;28;20055;-77
2023/05/02 13:38:21;;;;;;;15.43;13.18;;;;;;;;;;4967479;28;20061;-81
2023/05/02 13:40:48;;;;;;;19.38;14.20;;;;;;;;;;4968849;28;20054;-83
2023/05/02 13:43:15;;;;;;;16.58;13.63;;;;;;;;;;4963744;28;20066;-78
2023/05/02 13:45:42;;;;;;;13.32;11.20;;;;;;;;;;4981470;28;20054;-78
2023/05/02 13:48:09;;;;;;;13.43;11.32;;;;;;;;;;4965199;28;20094;-78
2023/05/02 13:50:37;;;;;;;12.85;11.13;;;;;;;;;;4969133;28;20047;-78
2023/05/02 13:53:03;;;;;;;13.10;11.73;;;;;;;;;;4950382;28;21387;-78
2023/05/02 13:55:30;;;;;;;12.55;11.23;;;;;;;;;;4977007;28;20054;-78
2023/05/02 13:57:57;;;;;;;12.73;9.95;;;;;;;;;;4941473;28;20082;-81
2023/05/02 14:00:24;;;;;;;11.52;10.32;;;;;;;;;;4952576;28;20518;-83
2023/05/02 14:02:51;;;;;;;12.52;8.95;;;;;;;;;;4949257;28;20050;-79
2023/05/02 14:05:18;;;;;;;11.00;9.65;;;;;;;;;;4963516;28;20117;-78
2023/05/02 14:07:46;;;;;;;14.80;10.38;;;;;;;;;;4963398;28;20046;-78
2023/05/02 14:10:12;;;;;;;11.18;9.95;;;;;;;;;;4948047;28;20940;-78
2023/05/02 14:12:39;;;;;;;17.00;10.52;;;;;;;;;;4947523;28;20744;-78
2023/05/02 14:15:07;;;;;;;11.73;9.63;;;;;;;;;;4980314;28;20061;-76
2023/05/02 14:17:33;;;;;;;10.00;8.85;;;;;;;;;;4965310;28;20409;-77
2023/05/02 14:20:00;;;;;;;9.77;8.77;;;;;;;;;;4978605;28;20530;-76
2023/05/02 14:22:27;;;;;;;10.02;8.90;;;;;;;;;;4981034;28;20054;-76
2023/05/02 14:24:54;;;;;;;11.32;8.27;;;;;;;;;;4979345;28;20069;-76
2023/05/02 14:27:21;;;;;;;11.88;8.15;;;;;;;;;;4980290;28;20053;-76
2023/05/02 14:29:48;;;;;;;10.43;9.00;;;;;;;;;;4967260;28;20273;-76
2023/05/02 14:32:15;;;;;;;12.27;9.57;;;;;;;;;;4973896;28;20058;-76
2023/05/02 14:34:42;;;;;;;10.82;8.30;;;;;;;;;;4965917;28;20087;-76
2023/05/02 14:37:09;;;;;;;9.85;7.03;;;;;;;;;;4951159;28;20082;-77